Time;durP1;ratioP1;P1;durP2;ratioP2;P2;SDS_P1;SDS_P2;PMS_P1;PMS_P2;Temp;Humidity;BMP_temperature;BMP_pressure;BME280_temperature;BME280_humidity;BME280_pressure;Samples;Min_cycle;Max_cycle;Signal;HPM_P1;HPM_P2
2022/09/18 00:01:56;;;;;;;5.30;4.90;;;;;;;;;;5037411;28;20052;-60
2022/09/18 00:04:22;;;;;;;5.40;5.00;;;;;;;;;;5040994;28;20132;-60
2022/09/18 00:06:47;;;;;;;5.50;5.10;;;;;;;;;;5034544;28;20363;-60
2022/09/18 00:09:14;;;;;;;5.78;5.38;;;;;;;;;;5033482;28;20044;-60
2022/09/18 00:11:42;;;;;;;6.65;6.15;;;;;;;;;;5036907;28;20048;-63
2022/09/18 00:14:10;;;;;;;5.50;5.10;;;;;;;;;;5035310;28;20431;-60
2022/09/18 00:16:36;;;;;;;5.68;5.28;;;;;;;;;;5032318;28;20033;-60
2022/09/18 00:19:02;;;;;;;5.80;5.40;;;;;;;;;;5035268;28;20075;-60
2022/09/18 00:21:28;;;;;;;5.78;5.38;;;;;;;;;;5041729;28;20617;-60
2022/09/18 00:23:56;;;;;;;5.50;5.10;;;;;;;;;;5043465;28;20033;-60
2022/09/18 00:26:24;;;;;;;6.03;5.63;;;;;;;;;;5043340;28;20079;-60
2022/09/18 00:28:50;;;;;;;5.80;5.40;;;;;;;;;;5039411;28;20037;-60
2022/09/18 00:31:18;;;;;;;5.35;4.95;;;;;;;;;;5037795;28;20039;-60
2022/09/18 00:33:44;;;;;;;5.63;5.22;;;;;;;;;;5037968;28;20088;-60
2022/09/18 00:36:15;;;;;;;5.22;4.82;;;;;;;;;;5040076;28;20463;-60
2022/09/18 00:38:40;;;;;;;5.50;5.10;;;;;;;;;;5036930;28;20049;-60
2022/09/18 00:41:15;;;;;;;5.50;5.10;;;;;;;;;;5042666;28;20410;-60
2022/09/18 00:43:41;;;;;;;6.00;5.60;;;;;;;;;;5040482;28;20163;-60
2022/09/18 00:46:17;;;;;;;8.85;6.18;;;;;;;;;;5037159;28;20087;-60
2022/09/18 00:48:47;;;;;;;5.95;5.45;;;;;;;;;;5069387;28;20665;-60
2022/09/18 00:51:13;;;;;;;5.88;5.47;;;;;;;;;;5039127;28;20648;-60
2022/09/18 00:53:43;;;;;;;6.45;5.95;;;;;;;;;;5070290;28;20120;-60
2022/09/18 00:56:12;;;;;;;5.20;4.80;;;;;;;;;;5038901;28;20049;-60
2022/09/18 00:58:38;;;;;;;5.18;4.78;;;;;;;;;;5038551;28;20329;-60
2022/09/18 01:01:03;;;;;;;5.57;5.13;;;;;;;;;;5035557;28;20051;-60
2022/09/18 01:03:29;;;;;;;4.97;4.57;;;;;;;;;;5023776;28;20673;-60
2022/09/18 01:06:10;;;;;;;5.90;5.45;;;;;;;;;;5039194;28;20029;-60
2022/09/18 01:08:58;;;;;;;6.05;5.65;;;;;;;;;;5070448;28;20495;-60
2022/09/18 01:11:35;;;;;;;5.40;5.00;;;;;;;;;;5039109;28;20118;-60
2022/09/18 01:14:29;;;;;;;5.68;5.28;;;;;;;;;;5041443;28;20041;-60
2022/09/18 01:17:03;;;;;;;6.03;5.63;;;;;;;;;;5039103;28;20045;-60
2022/09/18 01:19:40;;;;;;;5.53;5.13;;;;;;;;;;5035246;28;20119;-60
2022/09/18 01:22:21;;;;;;;6.25;5.78;;;;;;;;;;5037668;28;20049;-60
2022/09/18 01:25:20;;;;;;;5.43;5.03;;;;;;;;;;5040159;28;20033;-60
2022/09/18 01:28:00;;;;;;;5.90;5.40;;;;;;;;;;5044145;28;20033;-63
2022/09/18 01:30:25;;;;;;;6.00;5.60;;;;;;;;;;5038841;28;20720;-63
2022/09/18 01:33:06;;;;;;;5.47;5.07;;;;;;;;;;5035856;28;20036;-63
2022/09/18 01:35:41;;;;;;;5.32;4.93;;;;;;;;;;5039621;28;20032;-64
2022/09/18 01:38:19;;;;;;;5.80;5.38;;;;;;;;;;5038694;28;20045;-64
2022/09/18 01:41:00;;;;;;;6.07;5.68;;;;;;;;;;5036688;28;20059;-64
2022/09/18 01:43:29;;;;;;;5.40;5.00;;;;;;;;;;5039645;28;20503;-63
2022/09/18 01:45:58;;;;;;;6.07;5.57;;;;;;;;;;5038831;28;20029;-63
2022/09/18 01:48:32;;;;;;;5.30;4.90;;;;;;;;;;5040035;28;20029;-64
2022/09/18 01:51:17;;;;;;;8.82;5.82;;;;;;;;;;5038358;28;20135;-63
2022/09/18 01:53:55;;;;;;;6.32;5.72;;;;;;;;;;5035028;28;20462;-63
2022/09/18 01:56:25;;;;;;;5.60;5.20;;;;;;;;;;5036291;28;20040;-64
2022/09/18 01:58:54;;;;;;;6.30;5.80;;;;;;;;;;5041440;28;20059;-63
2022/09/18 02:01:21;;;;;;;5.85;5.45;;;;;;;;;;5038929;28;20043;-64
2022/09/18 02:03:55;;;;;;;6.10;5.70;;;;;;;;;;5037246;28;20064;-63
2022/09/18 02:06:27;;;;;;;6.25;5.85;;;;;;;;;;5036777;28;20433;-63
2022/09/18 02:08:54;;;;;;;6.72;6.25;;;;;;;;;;5035224;28;20056;-63
2022/09/18 02:11:20;;;;;;;6.22;5.75;;;;;;;;;;5036679;28;20136;-63
2022/09/18 02:14:04;;;;;;;5.65;5.25;;;;;;;;;;5035509;28;20045;-64
2022/09/18 02:16:51;;;;;;;5.40;5.00;;;;;;;;;;5037584;28;20685;-64
2022/09/18 02:19:41;;;;;;;6.13;5.63;;;;;;;;;;5036829;28;20120;-63
2022/09/18 02:22:11;;;;;;;5.93;5.53;;;;;;;;;;5037746;28;20059;-63
2022/09/18 02:24:39;;;;;;;5.40;5.00;;;;;;;;;;5036647;28;20025;-63
2022/09/18 02:27:08;;;;;;;6.00;5.60;;;;;;;;;;5037099;28;20040;-63
2022/09/18 02:29:35;;;;;;;6.13;5.63;;;;;;;;;;5038174;28;20035;-65
2022/09/18 02:32:01;;;;;;;5.65;5.15;;;;;;;;;;5035250;28;20619;-64
2022/09/18 02:34:27;;;;;;;5.22;4.82;;;;;;;;;;5034231;28;20029;-64
2022/09/18 02:37:02;;;;;;;6.22;5.82;;;;;;;;;;5033486;28;20029;-63
2022/09/18 02:39:47;;;;;;;5.93;5.53;;;;;;;;;;5037929;28;20478;-64
2022/09/18 02:42:19;;;;;;;5.82;5.43;;;;;;;;;;5036255;28;20037;-64
2022/09/18 02:45:11;;;;;;;5.80;5.30;;;;;;;;;;5035954;28;20040;-64
2022/09/18 02:47:42;;;;;;;5.30;4.90;;;;;;;;;;5036512;28;20041;-64
2022/09/18 02:50:07;;;;;;;5.75;5.25;;;;;;;;;;5042362;28;20051;-64
2022/09/18 02:52:45;;;;;;;5.40;5.00;;;;;;;;;;5034317;28;20024;-64
2022/09/18 02:55:22;;;;;;;5.20;4.80;;;;;;;;;;5036070;28;20049;-64
2022/09/18 02:58:25;;;;;;;5.85;5.45;;;;;;;;;;5034514;28;20025;-65
2022/09/18 03:00:53;;;;;;;6.00;5.60;;;;;;;;;;4951524;28;20101;-64
2022/09/18 03:03:19;;;;;;;6.85;6.25;;;;;;;;;;5026939;28;20048;-64
2022/09/18 03:05:44;;;;;;;5.50;5.10;;;;;;;;;;5037653;28;20036;-62
2022/09/18 03:08:11;;;;;;;6.07;5.68;;;;;;;;;;5039076;28;20657;-63
2022/09/18 03:10:36;;;;;;;5.32;4.93;;;;;;;;;;5033331;28;20099;-63
2022/09/18 03:13:01;;;;;;;6.07;5.60;;;;;;;;;;5036977;28;20468;-63
2022/09/18 03:15:27;;;;;;;5.88;5.45;;;;;;;;;;5037206;28;20518;-63
2022/09/18 03:17:52;;;;;;;5.40;5.00;;;;;;;;;;5035612;28;20113;-63
2022/09/18 03:20:17;;;;;;;5.57;5.18;;;;;;;;;;5034955;28;20037;-63
2022/09/18 03:22:43;;;;;;;5.45;5.05;;;;;;;;;;5068271;28;20033;-64
2022/09/18 03:25:10;;;;;;;5.60;5.20;;;;;;;;;;5036401;28;20033;-64
2022/09/18 03:27:36;;;;;;;6.10;5.70;;;;;;;;;;5030961;28;20049;-65
2022/09/18 03:30:01;;;;;;;5.00;4.60;;;;;;;;;;5031900;28;20075;-64
2022/09/18 03:32:27;;;;;;;5.93;5.53;;;;;;;;;;5034570;28;20056;-63
2022/09/18 03:34:52;;;;;;;6.30;5.90;;;;;;;;;;5030311;28;20056;-64
2022/09/18 03:37:18;;;;;;;5.40;5.00;;;;;;;;;;5035124;28;20044;-61
2022/09/18 03:39:43;;;;;;;5.20;4.80;;;;;;;;;;5035119;28;20483;-64
2022/09/18 03:42:09;;;;;;;5.32;4.93;;;;;;;;;;5036420;28;20029;-63
2022/09/18 03:44:34;;;;;;;6.03;5.45;;;;;;;;;;5033956;28;20032;-63
2022/09/18 03:46:59;;;;;;;6.07;5.68;;;;;;;;;;5034711;28;20094;-63
2022/09/18 03:49:25;;;;;;;5.63;5.22;;;;;;;;;;5034739;28;20033;-63
2022/09/18 03:51:50;;;;;;;5.95;5.55;;;;;;;;;;5033573;28;20488;-63
2022/09/18 03:54:16;;;;;;;6.10;5.70;;;;;;;;;;5036414;28;20040;-63
2022/09/18 03:56:41;;;;;;;5.28;4.88;;;;;;;;;;5035616;28;20636;-64
2022/09/18 03:59:07;;;;;;;5.50;5.10;;;;;;;;;;5034933;28;20123;-63
2022/09/18 04:01:32;;;;;;;5.85;5.45;;;;;;;;;;5036616;28;20037;-63
2022/09/18 04:03:57;;;;;;;5.88;5.43;;;;;;;;;;5066956;28;20028;-63
2022/09/18 04:06:23;;;;;;;5.40;5.00;;;;;;;;;;5042771;28;20040;-63
2022/09/18 04:08:49;;;;;;;5.25;4.85;;;;;;;;;;5038894;28;20057;-63
2022/09/18 04:11:14;;;;;;;5.30;4.90;;;;;;;;;;5035464;28;20053;-63
2022/09/18 04:13:39;;;;;;;5.55;5.15;;;;;;;;;;5037121;28;20487;-63
2022/09/18 04:16:05;;;;;;;5.70;5.30;;;;;;;;;;5032734;28;20163;-63
2022/09/18 04:18:31;;;;;;;5.72;5.32;;;;;;;;;;5037649;28;20459;-62
2022/09/18 04:20:56;;;;;;;5.38;4.97;;;;;;;;;;5034272;28;20118;-63
2022/09/18 04:23:21;;;;;;;5.40;5.00;;;;;;;;;;5035181;28;20033;-62
2022/09/18 04:25:47;;;;;;;5.65;5.25;;;;;;;;;;5035809;28;20056;-62
2022/09/18 04:28:12;;;;;;;6.50;5.90;;;;;;;;;;5034377;28;20447;-62
2022/09/18 04:30:37;;;;;;;5.40;5.00;;;;;;;;;;5033196;28;20033;-64
2022/09/18 04:33:03;;;;;;;6.28;5.88;;;;;;;;;;5031717;28;20033;-62
2022/09/18 04:35:29;;;;;;;5.75;5.35;;;;;;;;;;5032731;28;20087;-62
2022/09/18 04:37:54;;;;;;;6.20;5.80;;;;;;;;;;5030425;28;20031;-63
2022/09/18 04:40:20;;;;;;;7.53;6.85;;;;;;;;;;5032673;28;20429;-63
2022/09/18 04:42:46;;;;;;;5.80;5.40;;;;;;;;;;5034719;28;20332;-62
2022/09/18 04:45:11;;;;;;;5.47;5.07;;;;;;;;;;5036515;28;20103;-63
2022/09/18 04:47:37;;;;;;;5.78;5.38;;;;;;;;;;5034349;28;20036;-62
2022/09/18 04:50:03;;;;;;;6.35;5.95;;;;;;;;;;5033530;28;20040;-62
2022/09/18 04:52:29;;;;;;;5.60;5.20;;;;;;;;;;5034731;28;20025;-63
2022/09/18 04:54:54;;;;;;;5.65;5.25;;;;;;;;;;5031495;28;20480;-62
2022/09/18 04:57:19;;;;;;;5.60;5.20;;;;;;;;;;5030840;28;20037;-63
2022/09/18 04:59:45;;;;;;;5.60;5.20;;;;;;;;;;5033837;28;20031;-62
2022/09/18 05:02:10;;;;;;;5.80;5.40;;;;;;;;;;5036612;28;20155;-63
2022/09/18 05:04:35;;;;;;;5.65;5.25;;;;;;;;;;5036400;28;20021;-62
2022/09/18 05:07:02;;;;;;;6.40;5.90;;;;;;;;;;5039508;28;20079;-62
2022/09/18 05:09:27;;;;;;;5.75;5.35;;;;;;;;;;5040063;28;20025;-62
2022/09/18 05:11:53;;;;;;;5.93;5.53;;;;;;;;;;5036995;28;20352;-63
2022/09/18 05:14:19;;;;;;;5.47;5.07;;;;;;;;;;5039229;28;20029;-62
2022/09/18 05:16:44;;;;;;;5.93;5.53;;;;;;;;;;5041900;28;20040;-62
2022/09/18 05:19:10;;;;;;;5.55;5.15;;;;;;;;;;5038989;28;20091;-62
2022/09/18 05:21:35;;;;;;;6.05;5.65;;;;;;;;;;5038269;28;20506;-62
2022/09/18 05:24:01;;;;;;;6.15;5.75;;;;;;;;;;5042176;28;20087;-63
2022/09/18 05:26:26;;;;;;;5.72;5.32;;;;;;;;;;5039552;28;20026;-62
2022/09/18 05:28:52;;;;;;;6.20;5.80;;;;;;;;;;5037844;28;20486;-62
2022/09/18 05:31:17;;;;;;;6.13;5.72;;;;;;;;;;5038819;28;20033;-62
2022/09/18 05:33:42;;;;;;;5.60;5.20;;;;;;;;;;5039458;28;20524;-63
2022/09/18 05:36:09;;;;;;;5.60;5.20;;;;;;;;;;5036074;28;20071;-63
2022/09/18 05:38:34;;;;;;;6.07;5.68;;;;;;;;;;5039090;28;20494;-62
2022/09/18 05:41:00;;;;;;;5.53;5.13;;;;;;;;;;5036514;28;20119;-62
2022/09/18 05:43:26;;;;;;;5.10;4.70;;;;;;;;;;5036499;28;20120;-63
2022/09/18 05:45:51;;;;;;;5.30;4.90;;;;;;;;;;5044076;28;20739;-63
2022/09/18 05:48:17;;;;;;;5.68;5.28;;;;;;;;;;5037446;28;20052;-62
2022/09/18 05:50:42;;;;;;;6.10;5.70;;;;;;;;;;5035291;28;20087;-63
2022/09/18 05:53:13;;;;;;;5.50;5.10;;;;;;;;;;5031974;28;20103;-62
2022/09/18 05:55:39;;;;;;;;;;;;;;;;;;5038781;28;20044;-63
2022/09/18 05:58:06;;;;;;;6.43;6.03;;;;;;;;;;5034708;28;19916;-63
2022/09/18 06:00:33;;;;;;;5.80;5.30;;;;;;;;;;5038219;28;20477;-62
2022/09/18 06:03:01;;;;;;;5.57;5.18;;;;;;;;;;5038049;28;20434;-63
2022/09/18 06:05:29;;;;;;;5.20;4.80;;;;;;;;;;5039342;28;20120;-62
2022/09/18 06:07:56;;;;;;;5.75;5.35;;;;;;;;;;5036058;28;20467;-63
2022/09/18 06:10:22;;;;;;;5.35;4.95;;;;;;;;;;5037208;28;20498;-63
2022/09/18 06:12:47;;;;;;;5.18;4.78;;;;;;;;;;5038636;28;20116;-63
2022/09/18 06:15:13;;;;;;;6.25;5.85;;;;;;;;;;5038972;28;20382;-63
2022/09/18 06:17:39;;;;;;;5.32;4.93;;;;;;;;;;5067443;28;20115;-62
2022/09/18 06:20:07;;;;;;;6.63;6.13;;;;;;;;;;5036819;28;20148;-63
2022/09/18 06:22:33;;;;;;;5.60;5.20;;;;;;;;;;5036350;28;20036;-62
2022/09/18 06:24:59;;;;;;;6.30;5.90;;;;;;;;;;5033430;28;20108;-62
2022/09/18 06:27:24;;;;;;;5.70;5.30;;;;;;;;;;5035822;28;20111;-63
2022/09/18 06:29:50;;;;;;;5.82;5.43;;;;;;;;;;5037130;28;20033;-62
2022/09/18 06:32:15;;;;;;;5.55;5.15;;;;;;;;;;5042207;28;20032;-63
2022/09/18 06:34:41;;;;;;;6.28;5.88;;;;;;;;;;5037823;28;20215;-63
2022/09/18 06:37:09;;;;;;;6.43;5.95;;;;;;;;;;5038794;28;20345;-62
2022/09/18 06:39:35;;;;;;;6.13;5.72;;;;;;;;;;5037260;28;20032;-61
2022/09/18 06:42:00;;;;;;;5.80;5.40;;;;;;;;;;5037610;28;20902;-63
2022/09/18 06:44:25;;;;;;;5.90;5.50;;;;;;;;;;5037469;28;20025;-63
2022/09/18 06:46:51;;;;;;;6.00;5.60;;;;;;;;;;5035440;28;20026;-63
2022/09/18 06:49:16;;;;;;;6.75;6.25;;;;;;;;;;5042878;28;20835;-63
2022/09/18 06:51:41;;;;;;;5.97;5.57;;;;;;;;;;5036724;28;20032;-63
2022/09/18 06:54:07;;;;;;;6.10;5.70;;;;;;;;;;5036265;28;20774;-63
2022/09/18 06:56:32;;;;;;;5.97;5.57;;;;;;;;;;5036202;28;20033;-63
2022/09/18 06:58:58;;;;;;;5.90;5.50;;;;;;;;;;5033618;28;20636;-63
2022/09/18 07:01:23;;;;;;;5.65;5.25;;;;;;;;;;5035018;28;20031;-63
2022/09/18 07:03:49;;;;;;;6.60;6.10;;;;;;;;;;5069916;28;20033;-63
2022/09/18 07:06:14;;;;;;;5.75;5.35;;;;;;;;;;5037653;28;20025;-63
2022/09/18 07:08:39;;;;;;;5.82;5.43;;;;;;;;;;5035014;28;20029;-63
2022/09/18 07:11:05;;;;;;;6.32;5.93;;;;;;;;;;5035430;28;20044;-62
2022/09/18 07:13:31;;;;;;;5.70;5.30;;;;;;;;;;5036427;28;20072;-62
2022/09/18 07:15:57;;;;;;;6.30;5.90;;;;;;;;;;5035262;28;20049;-63
2022/09/18 07:18:23;;;;;;;5.50;5.10;;;;;;;;;;5070541;28;20370;-64
2022/09/18 07:20:49;;;;;;;5.97;5.57;;;;;;;;;;5065916;28;20945;-64
2022/09/18 07:23:16;;;;;;;5.72;5.32;;;;;;;;;;5036566;28;20124;-64
2022/09/18 07:25:41;;;;;;;5.68;5.28;;;;;;;;;;5035779;28;20025;-62
2022/09/18 07:28:09;;;;;;;5.85;5.45;;;;;;;;;;5037922;28;20569;-63
2022/09/18 07:30:36;;;;;;;6.13;5.72;;;;;;;;;;5066151;28;20451;-63
2022/09/18 07:33:03;;;;;;;6.85;6.35;;;;;;;;;;5034658;28;20052;-64
2022/09/18 07:35:28;;;;;;;6.15;5.75;;;;;;;;;;5036492;28;20033;-63
2022/09/18 07:38:01;;;;;;;6.20;5.78;;;;;;;;;;5035851;28;20035;-63
2022/09/18 07:40:27;;;;;;;6.60;6.10;;;;;;;;;;5037119;28;20040;-62
2022/09/18 07:43:04;;;;;;;6.28;5.88;;;;;;;;;;5035041;28;20029;-63
2022/09/18 07:45:30;;;;;;;5.65;5.25;;;;;;;;;;5035561;28;20064;-62
2022/09/18 07:47:56;;;;;;;5.68;5.28;;;;;;;;;;5034466;28;20386;-63
2022/09/18 07:50:21;;;;;;;5.72;5.32;;;;;;;;;;5034956;28;20056;-62
2022/09/18 07:52:52;;;;;;;5.70;5.30;;;;;;;;;;5036085;28;20417;-62
2022/09/18 07:55:19;;;;;;;6.85;6.20;;;;;;;;;;5034758;28;20033;-62
2022/09/18 07:57:46;;;;;;;5.53;5.13;;;;;;;;;;5034225;28;20368;-62
2022/09/18 08:00:12;;;;;;;5.80;5.40;;;;;;;;;;5033959;28;20029;-62
2022/09/18 08:02:38;;;;;;;5.93;5.53;;;;;;;;;;5034995;28;20094;-62
2022/09/18 08:05:04;;;;;;;5.78;5.38;;;;;;;;;;5035412;28;20131;-62
2022/09/18 08:07:29;;;;;;;5.78;5.35;;;;;;;;;;5035946;28;20029;-63
2022/09/18 08:09:55;;;;;;;5.60;5.20;;;;;;;;;;5034400;28;20032;-62
2022/09/18 08:12:20;;;;;;;5.80;5.40;;;;;;;;;;5037062;28;20044;-64
2022/09/18 08:14:45;;;;;;;6.10;5.70;;;;;;;;;;5035038;28;20037;-62
2022/09/18 08:17:11;;;;;;;5.80;5.40;;;;;;;;;;5035283;28;20118;-62
2022/09/18 08:19:36;;;;;;;5.30;4.90;;;;;;;;;;5033988;28;20146;-62
2022/09/18 08:22:03;;;;;;;6.07;5.68;;;;;;;;;;5035356;28;20053;-63
2022/09/18 08:24:28;;;;;;;5.63;5.22;;;;;;;;;;5034145;28;20525;-61
2022/09/18 08:26:58;;;;;;;6.30;5.90;;;;;;;;;;5036088;28;20018;-62
2022/09/18 08:29:24;;;;;;;6.03;5.63;;;;;;;;;;5033487;28;20561;-61
2022/09/18 08:31:49;;;;;;;5.93;5.53;;;;;;;;;;5064932;28;20171;-62
2022/09/18 08:34:15;;;;;;;5.55;5.15;;;;;;;;;;5038411;28;20053;-63
2022/09/18 08:36:40;;;;;;;6.18;5.78;;;;;;;;;;5035417;28;20451;-62
2022/09/18 08:39:06;;;;;;;5.60;5.20;;;;;;;;;;5038063;28;20028;-63
2022/09/18 08:41:37;;;;;;;5.43;5.03;;;;;;;;;;5036818;28;20070;-62
2022/09/18 08:44:15;;;;;;;;;;;;;;;;;;5039118;28;20146;-62
2022/09/18 08:46:52;;;;;;;5.60;5.20;;;;;;;;;;5036279;28;19913;-62
2022/09/18 08:49:50;;;;;;;5.50;5.10;;;;;;;;;;5038101;28;20043;-62
2022/09/18 08:52:19;;;;;;;5.68;5.28;;;;;;;;;;5027122;28;20049;-62
2022/09/18 08:54:55;;;;;;;6.05;5.65;;;;;;;;;;5042064;28;20036;-63
2022/09/18 08:57:27;;;;;;;5.82;5.43;;;;;;;;;;5039151;28;20048;-62
2022/09/18 08:59:57;;;;;;;5.22;4.82;;;;;;;;;;5040138;28;20047;-63
2022/09/18 09:02:40;;;;;;;4.95;4.55;;;;;;;;;;5036011;28;20033;-63
2022/09/18 09:05:09;;;;;;;5.50;5.10;;;;;;;;;;5037133;28;20060;-62
2022/09/18 09:07:59;;;;;;;5.30;4.90;;;;;;;;;;5036675;28;20506;-62
2022/09/18 09:10:50;;;;;;;5.20;4.80;;;;;;;;;;5038446;28;20114;-63
2022/09/18 09:13:27;;;;;;;5.15;4.75;;;;;;;;;;5038677;28;20099;-63
2022/09/18 09:16:04;;;;;;;5.72;5.20;;;;;;;;;;5032847;28;20032;-63
2022/09/18 09:18:48;;;;;;;5.95;5.47;;;;;;;;;;5039272;28;20040;-62
2022/09/18 09:21:44;;;;;;;6.20;5.80;;;;;;;;;;5071317;28;20147;-63
2022/09/18 09:24:20;;;;;;;5.65;5.25;;;;;;;;;;5038828;28;20033;-61
2022/09/18 09:26:48;;;;;;;5.75;5.35;;;;;;;;;;5037100;28;20108;-63
2022/09/18 09:29:18;;;;;;;5.70;5.30;;;;;;;;;;5038431;28;20039;-63
2022/09/18 09:31:52;;;;;;;5.47;5.07;;;;;;;;;;5041713;28;20021;-63
2022/09/18 09:34:23;;;;;;;5.60;5.20;;;;;;;;;;5039307;28;20033;-62
2022/09/18 09:36:50;;;;;;;;;;;;;;;;;;5037943;28;20477;-63
2022/09/18 09:39:38;;;;;;;5.65;5.25;;;;;;;;;;5044614;28;19909;-63
2022/09/18 09:42:11;;;;;;;6.90;6.40;;;;;;;;;;5037213;28;20101;-63
2022/09/18 09:44:43;;;;;;;6.90;6.40;;;;;;;;;;5037925;28;20617;-62
2022/09/18 09:47:12;;;;;;;6.20;5.80;;;;;;;;;;5038436;28;20028;-62
2022/09/18 09:50:05;;;;;;;7.13;6.63;;;;;;;;;;5039983;28;20029;-61
2022/09/18 09:52:31;;;;;;;6.80;6.30;;;;;;;;;;5038361;28;20409;-62
2022/09/18 09:55:17;;;;;;;6.68;6.22;;;;;;;;;;5070158;28;20026;-62
2022/09/18 09:57:48;;;;;;;11.35;6.22;;;;;;;;;;5038206;28;20560;-62
2022/09/18 10:00:19;;;;;;;6.28;5.88;;;;;;;;;;5040500;28;20091;-62
2022/09/18 10:03:13;;;;;;;;;;;;;;;;;;5038805;28;20075;-63
2022/09/18 10:05:48;;;;;;;7.35;6.85;;;;;;;;;;5042402;28;20007;-64
2022/09/18 10:08:16;;;;;;;6.95;6.45;;;;;;;;;;5041649;28;20033;-65
2022/09/18 10:10:52;;;;;;;7.05;6.55;;;;;;;;;;5038257;28;20033;-63
2022/09/18 10:13:25;;;;;;;8.25;7.60;;;;;;;;;;5038738;28;20021;-64
2022/09/18 10:15:56;;;;;;;7.40;6.90;;;;;;;;;;5036149;28;20037;-64
2022/09/18 10:18:27;;;;;;;6.85;6.35;;;;;;;;;;5037018;28;20032;-62
2022/09/18 10:20:57;;;;;;;6.50;6.00;;;;;;;;;;5021006;28;20056;-63
2022/09/18 10:23:29;;;;;;;6.43;6.03;;;;;;;;;;5038303;28;20410;-63
2022/09/18 10:25:58;;;;;;;6.40;6.00;;;;;;;;;;5039544;28;20029;-63
2022/09/18 10:28:28;;;;;;;6.32;5.82;;;;;;;;;;5038211;28;20482;-63
2022/09/18 10:30:53;;;;;;;6.00;5.60;;;;;;;;;;5037991;28;20108;-63
2022/09/18 10:33:41;;;;;;;6.85;6.35;;;;;;;;;;5066934;28;20103;-60
2022/09/18 10:36:45;;;;;;;6.18;5.78;;;;;;;;;;5036589;28;20065;-60
2022/09/18 10:39:26;;;;;;;6.95;6.45;;;;;;;;;;4998359;28;20045;-60
2022/09/18 10:41:56;;;;;;;6.65;6.18;;;;;;;;;;4993449;28;20096;-60
2022/09/18 10:44:36;;;;;;;7.53;7.03;;;;;;;;;;5025490;28;20025;-60
2022/09/18 10:47:17;;;;;;;7.07;6.57;;;;;;;;;;5039053;28;20021;-60
2022/09/18 10:49:50;;;;;;;6.72;6.22;;;;;;;;;;5037249;28;20033;-60
2022/09/18 10:52:32;;;;;;;7.03;6.53;;;;;;;;;;5039519;28;20088;-60
2022/09/18 10:55:04;;;;;;;7.15;6.65;;;;;;;;;;5036442;28;20457;-60
2022/09/18 10:57:48;;;;;;;7.53;7.03;;;;;;;;;;5033378;28;20087;-60
2022/09/18 11:00:17;;;;;;;6.85;6.35;;;;;;;;;;5038098;28;20071;-60
2022/09/18 11:02:47;;;;;;;6.15;5.75;;;;;;;;;;5035544;28;20029;-60
2022/09/18 11:05:17;;;;;;;5.60;5.20;;;;;;;;;;5035155;28;20044;-60
2022/09/18 11:07:50;;;;;;;6.18;5.78;;;;;;;;;;5037955;28;20052;-60
2022/09/18 11:10:18;;;;;;;6.22;5.82;;;;;;;;;;5036494;28;20091;-60
2022/09/18 11:12:50;;;;;;;9.43;8.82;;;;;;;;;;5034992;28;20490;-60
2022/09/18 11:15:18;;;;;;;6.07;5.68;;;;;;;;;;5034645;28;20144;-61
2022/09/18 11:17:52;;;;;;;6.07;5.68;;;;;;;;;;5033909;28;20162;-60
2022/09/18 11:20:23;;;;;;;5.80;5.40;;;;;;;;;;5038131;28;20044;-60
2022/09/18 11:22:49;;;;;;;5.70;5.30;;;;;;;;;;5037027;28;20120;-61
2022/09/18 11:25:21;;;;;;;5.97;5.57;;;;;;;;;;5037269;28;20179;-57
2022/09/18 11:27:52;;;;;;;5.90;5.50;;;;;;;;;;5036013;28;20403;-60
2022/09/18 11:30:20;;;;;;;6.28;5.70;;;;;;;;;;5036057;28;20033;-60
2022/09/18 11:32:48;;;;;;;7.20;6.70;;;;;;;;;;5034809;28;20033;-60
2022/09/18 11:35:17;;;;;;;8.63;5.47;;;;;;;;;;5035913;28;20044;-60
2022/09/18 11:37:49;;;;;;;6.45;6.05;;;;;;;;;;5037582;28;20041;-61
2022/09/18 11:40:20;;;;;;;5.93;5.53;;;;;;;;;;5037478;28;20029;-61
2022/09/18 11:42:49;;;;;;;5.85;5.45;;;;;;;;;;5035699;28;20119;-60
2022/09/18 11:45:46;;;;;;;6.30;5.90;;;;;;;;;;5035831;28;20135;-61
2022/09/18 11:48:24;;;;;;;6.53;6.05;;;;;;;;;;5019614;28;20158;-60
2022/09/18 11:50:54;;;;;;;5.93;5.53;;;;;;;;;;5035469;28;20410;-60
2022/09/18 11:53:25;;;;;;;6.07;5.68;;;;;;;;;;5037683;28;20033;-59
2022/09/18 11:56:14;;;;;;;5.82;5.43;;;;;;;;;;5034168;28;20490;-60
2022/09/18 11:58:44;;;;;;;5.70;5.30;;;;;;;;;;5034294;28;20033;-60
2022/09/18 12:01:34;;;;;;;5.65;5.25;;;;;;;;;;5041396;28;20525;-60
2022/09/18 12:04:12;;;;;;;6.55;6.05;;;;;;;;;;5032667;28;20041;-60
2022/09/18 12:07:08;;;;;;;11.75;5.78;;;;;;;;;;5034463;28;20116;-60
2022/09/18 12:09:47;;;;;;;5.93;5.53;;;;;;;;;;5030311;28;20032;-60
2022/09/18 12:12:29;;;;;;;5.90;5.50;;;;;;;;;;5031148;28;20033;-60
2022/09/18 12:15:07;;;;;;;5.70;5.30;;;;;;;;;;5034958;28;20025;-60
2022/09/18 12:17:39;;;;;;;6.57;6.07;;;;;;;;;;5040266;28;20122;-60
2022/09/18 12:20:10;;;;;;;6.75;6.25;;;;;;;;;;5069178;28;20057;-60
2022/09/18 12:22:46;;;;;;;6.03;5.63;;;;;;;;;;5039818;28;20494;-60
2022/09/18 12:25:13;;;;;;;6.35;5.85;;;;;;;;;;5038298;28;20041;-60
2022/09/18 12:27:48;;;;;;;7.25;6.75;;;;;;;;;;5036457;28;20430;-59
2022/09/18 12:30:17;;;;;;;5.90;5.50;;;;;;;;;;5040730;28;20041;-59
2022/09/18 12:33:28;;;;;;;6.00;5.60;;;;;;;;;;5039993;28;20034;-59
2022/09/18 12:36:24;;;;;;;5.90;5.50;;;;;;;;;;5036908;28;20034;-61
2022/09/18 12:39:11;;;;;;;6.28;5.82;;;;;;;;;;5037632;28;20124;-59
2022/09/18 12:41:45;;;;;;;5.95;5.55;;;;;;;;;;5038099;28;20507;-59
2022/09/18 12:44:52;;;;;;;6.32;5.93;;;;;;;;;;5038031;28;20479;-59
2022/09/18 12:47:44;;;;;;;6.43;6.03;;;;;;;;;;5037255;28;20059;-59
2022/09/18 12:50:31;;;;;;;6.53;6.13;;;;;;;;;;5036192;28;20060;-58
2022/09/18 12:53:39;;;;;;;6.65;6.15;;;;;;;;;;5038772;28;20099;-59
2022/09/18 12:56:05;;;;;;;6.90;5.88;;;;;;;;;;5028336;28;20052;-58
2022/09/18 12:58:38;;;;;;;5.90;5.50;;;;;;;;;;5072392;28;20036;-60
2022/09/18 13:01:21;;;;;;;5.97;5.57;;;;;;;;;;5036312;28;20033;-59
2022/09/18 13:03:49;;;;;;;5.85;5.45;;;;;;;;;;5034197;28;20119;-59
2022/09/18 13:06:22;;;;;;;5.72;5.32;;;;;;;;;;5034214;28;20029;-62
2022/09/18 13:08:55;;;;;;;5.60;5.20;;;;;;;;;;5034982;28;20025;-62
2022/09/18 13:11:32;;;;;;;6.72;5.93;;;;;;;;;;5034688;28;20112;-62
2022/09/18 13:14:14;;;;;;;5.53;5.13;;;;;;;;;;5067877;28;20064;-62
2022/09/18 13:16:46;;;;;;;5.93;5.53;;;;;;;;;;5037847;28;20063;-62
2022/09/18 13:19:30;;;;;;;5.93;5.45;;;;;;;;;;5038158;28;20042;-62
2022/09/18 13:21:57;;;;;;;5.72;5.32;;;;;;;;;;5037393;28;20067;-61
2022/09/18 13:24:27;;;;;;;5.72;5.32;;;;;;;;;;5038135;28;20590;-62
2022/09/18 13:26:54;;;;;;;5.70;5.30;;;;;;;;;;5036820;28;20101;-61
2022/09/18 13:29:47;;;;;;;5.82;5.43;;;;;;;;;;5036707;28;20025;-62
2022/09/18 13:32:20;;;;;;;5.68;5.28;;;;;;;;;;5035437;28;20025;-62
2022/09/18 13:34:51;;;;;;;5.72;5.30;;;;;;;;;;5036865;28;20040;-68
2022/09/18 13:37:21;;;;;;;6.38;5.88;;;;;;;;;;5035765;28;20071;-68
2022/09/18 13:40:08;;;;;;;5.85;5.45;;;;;;;;;;5038735;28;20031;-68
2022/09/18 13:42:42;;;;;;;5.90;5.40;;;;;;;;;;5024772;28;20033;-68
2022/09/18 13:45:24;;;;;;;5.90;5.50;;;;;;;;;;5036406;28;20183;-68
2022/09/18 13:47:59;;;;;;;5.97;5.57;;;;;;;;;;5039190;28;20634;-69
2022/09/18 13:50:25;;;;;;;5.93;5.50;;;;;;;;;;5037934;28;20037;-69
2022/09/18 13:52:54;;;;;;;5.38;4.97;;;;;;;;;;5038207;28;20095;-69
2022/09/18 13:55:21;;;;;;;5.82;5.43;;;;;;;;;;5039758;28;20086;-68
2022/09/18 13:57:47;;;;;;;6.68;6.07;;;;;;;;;;5036118;28;20029;-68
2022/09/18 14:00:19;;;;;;;5.53;5.13;;;;;;;;;;5036583;28;20771;-68
2022/09/18 14:02:45;;;;;;;6.00;5.60;;;;;;;;;;5044254;28;20037;-69
2022/09/18 14:05:33;;;;;;;6.05;5.55;;;;;;;;;;5038008;28;20037;-69
2022/09/18 14:08:06;;;;;;;5.82;5.43;;;;;;;;;;5036786;28;20059;-67
2022/09/18 14:10:42;;;;;;;5.60;5.20;;;;;;;;;;5039880;28;20497;-69
2022/09/18 14:13:25;;;;;;;5.50;5.10;;;;;;;;;;5036676;28;20040;-68
2022/09/18 14:16:29;;;;;;;5.68;5.28;;;;;;;;;;5035416;28;20033;-69
2022/09/18 14:19:01;;;;;;;5.95;5.55;;;;;;;;;;5016178;28;20041;-68
2022/09/18 14:21:46;;;;;;;5.30;4.90;;;;;;;;;;5037649;28;20017;-69
2022/09/18 14:24:54;;;;;;;6.03;5.53;;;;;;;;;;5038623;28;20363;-69
2022/09/18 14:27:56;;;;;;;5.63;5.22;;;;;;;;;;5038531;28;20044;-68
2022/09/18 14:30:26;;;;;;;6.00;5.60;;;;;;;;;;5034859;28;20395;-68
2022/09/18 14:33:14;;;;;;;5.78;5.38;;;;;;;;;;5034438;28;20103;-68
2022/09/18 14:35:48;;;;;;;5.80;5.38;;;;;;;;;;5037313;28;20036;-68
2022/09/18 14:38:16;;;;;;;5.45;5.05;;;;;;;;;;5035309;28;20018;-68
2022/09/18 14:40:49;;;;;;;6.25;5.85;;;;;;;;;;5034879;28;20053;-68
2022/09/18 14:43:16;;;;;;;6.50;5.90;;;;;;;;;;5052467;28;20115;-78
2022/09/18 14:45:41;;;;;;;6.75;6.25;;;;;;;;;;5038188;28;20085;-76
2022/09/18 14:48:33;;;;;;;5.55;5.15;;;;;;;;;;5037625;28;20037;-76
2022/09/18 14:51:21;;;;;;;6.28;5.88;;;;;;;;;;5033784;28;20037;-73
2022/09/18 14:53:55;;;;;;;6.15;5.75;;;;;;;;;;5034705;28;20072;-73
2022/09/18 14:56:31;;;;;;;5.78;5.38;;;;;;;;;;5035741;28;20029;-75
2022/09/18 14:58:59;;;;;;;5.60;5.20;;;;;;;;;;5036539;28;20056;-75
2022/09/18 15:01:27;;;;;;;5.95;5.55;;;;;;;;;;5037170;28;20127;-76
2022/09/18 15:03:54;;;;;;;6.40;5.95;;;;;;;;;;5035906;28;20025;-74
2022/09/18 15:06:24;;;;;;;6.57;6.07;;;;;;;;;;5038689;28;20578;-75
2022/09/18 15:08:55;;;;;;;5.75;5.35;;;;;;;;;;5031011;28;20041;-74
2022/09/18 15:11:23;;;;;;;5.75;5.35;;;;;;;;;;5041014;28;20037;-73